Time;durP1;ratioP1;P1;durP2;ratioP2;P2;SDS_P1;SDS_P2;PMS_P1;PMS_P2;Temp;Humidity;BMP_temperature;BMP_pressure;BME280_temperature;BME280_humidity;BME280_pressure;Samples;Min_cycle;Max_cycle;Signal;HPM_P1;HPM_P2
2022/07/21 00:01:38;;;;;;;1.40;1.35;;;19.30;99.90;;;;;;4994898;28;20451;-83
2022/07/21 00:04:04;;;;;;;1.23;1.23;;;19.20;99.90;;;;;;4972133;28;20782;-83
2022/07/21 00:06:31;;;;;;;1.48;1.38;;;19.20;99.90;;;;;;4989377;28;20527;-84
2022/07/21 00:08:58;;;;;;;1.57;1.47;;;19.10;99.90;;;;;;4988681;28;20959;-84
2022/07/21 00:11:25;;;;;;;1.52;1.42;;;19.10;99.90;;;;;;4969842;28;20442;-83
2022/07/21 00:13:51;;;;;;;2.05;1.85;;;19.10;99.90;;;;;;4982839;28;20537;-83
2022/07/21 00:16:18;;;;;;;1.20;1.10;;;19.10;99.90;;;;;;4986892;28;20438;-84
2022/07/21 00:18:50;;;;;;;1.35;1.25;;;19.10;99.90;;;;;;4968773;28;20434;-83
2022/07/21 00:21:17;;;;;;;1.30;1.20;;;19.20;99.90;;;;;;4994788;28;20440;-84
2022/07/21 00:23:44;;;;;;;1.27;1.17;;;19.20;99.90;;;;;;4966120;28;20522;-84
2022/07/21 00:26:10;;;;;;;1.10;1.08;;;19.30;99.90;;;;;;4988479;28;20518;-84
2022/07/21 00:28:37;;;;;;;1.30;1.20;;;19.30;99.90;;;;;;4969875;28;20438;-83
2022/07/21 00:31:04;;;;;;;1.05;1.05;;;19.30;99.90;;;;;;4967429;28;20477;-84
2022/07/21 00:33:34;;;;;;;1.27;1.17;;;19.30;99.90;;;;;;4973911;28;20466;-84
2022/07/21 00:36:01;;;;;;;1.20;1.20;;;19.30;99.90;;;;;;4988733;28;20434;-83
2022/07/21 00:38:28;;;;;;;1.67;1.58;;;19.30;99.90;;;;;;4977603;28;20434;-83
2022/07/21 00:40:55;;;;;;;1.55;1.45;;;19.30;99.90;;;;;;4980459;28;20443;-84
2022/07/21 00:43:22;;;;;;;1.35;1.35;;;19.20;99.90;;;;;;4969591;28;20858;-84
2022/07/21 00:45:52;;;;;;;1.10;1.10;;;19.10;99.90;;;;;;4986553;28;20450;-83
2022/07/21 00:48:20;;;;;;;1.30;1.20;;;19.10;99.90;;;;;;4967814;28;20486;-84
2022/07/21 00:50:50;;;;;;;1.40;1.20;;;19.10;99.90;;;;;;4986108;28;20438;-84
2022/07/21 00:53:17;;;;;;;1.02;1.02;;;19.00;99.90;;;;;;4988426;28;20853;-83
2022/07/21 00:55:46;;;;;;;1.60;1.40;;;19.00;99.90;;;;;;4980454;28;20440;-83
2022/07/21 00:58:13;;;;;;;1.30;1.30;;;19.00;99.90;;;;;;4973987;28;20437;-83
2022/07/21 01:00:40;;;;;;;1.40;1.40;;;19.00;99.90;;;;;;4972794;28;20445;-83
2022/07/21 01:03:08;;;;;;;1.58;1.48;;;19.00;99.90;;;;;;4973315;28;20565;-84
2022/07/21 01:05:35;;;;;;;1.23;1.17;;;19.00;99.90;;;;;;4990906;28;20563;-83
2022/07/21 01:08:07;;;;;;;1.42;1.40;;;19.00;99.90;;;;;;4992580;28;20446;-84
2022/07/21 01:10:34;;;;;;;1.27;1.17;;;19.00;99.90;;;;;;4977715;28;20421;-84
2022/07/21 01:13:01;;;;;;;1.20;1.20;;;19.00;99.90;;;;;;4974457;28;20444;-84
2022/07/21 01:15:28;;;;;;;1.42;1.33;;;19.00;99.90;;;;;;4986754;28;20437;-84
2022/07/21 01:17:55;;;;;;;1.50;1.33;;;19.00;99.90;;;;;;4988775;28;20456;-84
2022/07/21 01:20:24;;;;;;;1.40;1.30;;;19.00;99.90;;;;;;4984920;28;20444;-84
2022/07/21 01:22:55;;;;;;;1.50;1.40;;;19.00;99.90;;;;;;4981099;28;20468;-83
2022/07/21 01:25:22;;;;;;;1.40;1.30;;;18.90;99.90;;;;;;4973745;28;20802;-84
2022/07/21 01:27:50;;;;;;;1.10;1.10;;;18.90;99.90;;;;;;4988385;28;20434;-84
2022/07/21 01:30:20;;;;;;;1.75;1.65;;;18.80;99.90;;;;;;4974054;28;20671;-83
2022/07/21 01:32:46;;;;;;;1.35;1.33;;;18.80;99.90;;;;;;4970737;28;20435;-83
2022/07/21 01:35:14;;;;;;;1.27;1.27;;;18.70;99.90;;;;;;4986565;28;20438;-84
2022/07/21 01:37:44;;;;;;;1.17;1.17;;;18.70;99.90;;;;;;4986072;28;20545;-83
2022/07/21 01:42:58;;;;;;;1.23;1.07;;;18.80;99.90;;;;;;4983287;28;20442;-83
2022/07/21 01:45:26;;;;;;;1.83;1.73;;;18.80;99.90;;;;;;4986423;28;20450;-83
2022/07/21 01:47:52;;;;;;;1.38;1.30;;;18.80;99.90;;;;;;4990226;28;20855;-83
2022/07/21 01:50:21;;;;;;;1.55;1.45;;;18.90;99.90;;;;;;4988419;28;20510;-83
2022/07/21 01:52:47;;;;;;;1.45;1.35;;;18.90;99.90;;;;;;4968479;28;20442;-83
2022/07/21 01:55:14;;;;;;;1.02;1.02;;;19.00;99.90;;;;;;4988608;28;20444;-83
2022/07/21 01:57:43;;;;;;;0.95;0.95;;;19.00;99.90;;;;;;4987169;28;20438;-83
2022/07/21 02:00:10;;;;;;;1.20;1.20;;;19.10;99.90;;;;;;4969205;28;20446;-82
2022/07/21 02:02:37;;;;;;;1.35;1.27;;;19.00;99.90;;;;;;4987962;28;21154;-82
2022/07/21 02:05:04;;;;;;;1.30;1.30;;;19.10;99.90;;;;;;4986093;28;20429;-83
2022/07/21 02:07:31;;;;;;;2.20;1.65;;;19.10;99.90;;;;;;4982412;28;20442;-82
2022/07/21 02:09:57;;;;;;;1.87;1.40;;;19.10;99.90;;;;;;4977349;28;20442;-82
2022/07/21 02:12:24;;;;;;;1.65;1.48;;;19.10;99.90;;;;;;4988273;28;20453;-82
2022/07/21 02:14:54;;;;;;;1.60;1.50;;;19.20;99.90;;;;;;4982471;28;20470;-82
2022/07/21 02:17:21;;;;;;;1.25;1.25;;;19.10;99.90;;;;;;4981917;28;20434;-82
2022/07/21 02:19:48;;;;;;;1.08;1.08;;;19.20;99.90;;;;;;4988832;28;20442;-83
2022/07/21 02:22:15;;;;;;;2.60;1.45;;;19.20;99.90;;;;;;4984792;28;20442;-82
2022/07/21 02:24:42;;;;;;;1.17;1.17;;;19.20;99.90;;;;;;4973469;28;20438;-82
2022/07/21 02:27:08;;;;;;;1.10;1.00;;;19.10;99.90;;;;;;4984797;28;20441;-82
2022/07/21 02:29:35;;;;;;;1.08;1.08;;;19.10;99.90;;;;;;4973953;28;20438;-82
2022/07/21 02:32:03;;;;;;;1.10;1.10;;;19.10;99.90;;;;;;4968030;28;20444;-83
2022/07/21 02:34:30;;;;;;;1.40;1.30;;;19.10;99.90;;;;;;4990171;28;20436;-83
2022/07/21 02:36:56;;;;;;;1.48;1.38;;;19.00;99.90;;;;;;4990289;28;20592;-82
2022/07/21 02:39:23;;;;;;;0.80;0.80;;;18.90;99.90;;;;;;4985890;28;20438;-83
2022/07/21 02:41:50;;;;;;;1.02;1.02;;;18.80;99.90;;;;;;4967916;28;20517;-82
2022/07/21 02:44:17;;;;;;;1.08;1.08;;;18.80;99.90;;;;;;4963334;28;20565;-83
2022/07/21 02:46:43;;;;;;;0.88;0.88;;;18.80;99.90;;;;;;4973198;28;20438;-83
2022/07/21 02:49:10;;;;;;;0.65;0.65;;;18.80;99.90;;;;;;4968641;28;20457;-83
2022/07/21 02:51:37;;;;;;;1.10;1.10;;;18.80;99.90;;;;;;4987559;28;20434;-83
2022/07/21 02:54:04;;;;;;;1.10;1.00;;;18.90;99.90;;;;;;4970838;28;20441;-81
2022/07/21 02:56:30;;;;;;;1.10;1.10;;;18.90;99.90;;;;;;4983653;28;20441;-81
2022/07/21 02:58:57;;;;;;;1.10;1.10;;;18.90;99.90;;;;;;4967755;28;20434;-82
2022/07/21 03:01:27;;;;;;;1.02;1.02;;;18.90;99.90;;;;;;4991455;28;20449;-82
2022/07/21 03:03:53;;;;;;;1.00;1.00;;;18.90;99.90;;;;;;4985166;28;20550;-83
2022/07/21 03:06:20;;;;;;;1.30;1.30;;;18.90;99.90;;;;;;4988757;28;20762;-83
2022/07/21 03:08:47;;;;;;;1.00;1.00;;;19.00;99.90;;;;;;4969446;28;20984;-83
2022/07/21 03:11:13;;;;;;;1.00;1.00;;;18.90;99.90;;;;;;4987132;28;20455;-83
2022/07/21 03:13:40;;;;;;;1.70;1.00;;;18.90;99.90;;;;;;4986508;28;20470;-82
2022/07/21 03:16:07;;;;;;;0.70;0.70;;;18.90;99.90;;;;;;4967223;28;20440;-81
2022/07/21 03:18:37;;;;;;;1.02;0.93;;;18.90;99.90;;;;;;4960804;28;20440;-81
2022/07/21 03:21:04;;;;;;;1.13;1.03;;;18.90;99.90;;;;;;4976778;28;20446;-82
2022/07/21 03:23:33;;;;;;;0.73;0.73;;;18.90;99.90;;;;;;4967083;28;20908;-82
2022/07/21 03:26:00;;;;;;;1.80;1.13;;;18.90;99.90;;;;;;4977402;28;21687;-82
2022/07/21 03:28:27;;;;;;;0.95;0.90;;;18.90;99.90;;;;;;4972377;28;20517;-83
2022/07/21 03:30:54;;;;;;;1.00;1.00;;;18.80;99.90;;;;;;4956939;28;20545;-82
2022/07/21 03:33:20;;;;;;;0.90;0.90;;;18.80;99.90;;;;;;4964624;28;20530;-82
2022/07/21 03:35:49;;;;;;;0.90;0.90;;;18.70;99.90;;;;;;4988853;28;20432;-82
2022/07/21 03:38:16;;;;;;;1.25;1.15;;;18.80;99.90;;;;;;4964572;28;20430;-83
2022/07/21 03:40:46;;;;;;;1.05;0.98;;;18.70;99.90;;;;;;4967402;28;20510;-82
2022/07/21 03:43:12;;;;;;;0.73;0.73;;;18.70;99.90;;;;;;4968323;28;20433;-83
2022/07/21 03:45:39;;;;;;;0.77;0.77;;;18.70;99.90;;;;;;4966161;28;20739;-79
2022/07/21 03:48:08;;;;;;;1.00;1.00;;;18.70;99.90;;;;;;4981284;28;21255;-79
2022/07/21 03:50:37;;;;;;;0.90;0.90;;;18.60;99.90;;;;;;4987605;28;20452;-80
2022/07/21 03:53:04;;;;;;;1.10;0.98;;;18.50;99.90;;;;;;4989336;28;21021;-80
2022/07/21 03:55:32;;;;;;;0.93;0.93;;;18.40;99.90;;;;;;4984990;28;20528;-80
2022/07/21 03:58:04;;;;;;;0.80;0.80;;;18.40;99.90;;;;;;4981938;28;20442;-80
2022/07/21 04:00:40;;;;;;;1.38;1.27;;;18.40;99.90;;;;;;4987313;28;20995;-80
2022/07/21 04:03:08;;;;;;;0.90;0.90;;;18.40;99.90;;;;;;4984362;28;20442;-80
2022/07/21 04:05:36;;;;;;;1.60;1.27;;;18.40;99.90;;;;;;4984728;28;20446;-80
2022/07/21 04:08:04;;;;;;;1.00;1.00;;;18.40;99.90;;;;;;4988687;28;20442;-80
2022/07/21 04:10:34;;;;;;;0.75;0.75;;;18.50;99.90;;;;;;4984150;28;20452;-80
2022/07/21 04:13:03;;;;;;;0.90;0.90;;;18.60;99.90;;;;;;4973741;28;20928;-80
2022/07/21 04:15:30;;;;;;;0.80;0.80;;;18.60;99.90;;;;;;4985665;28;21328;-80
2022/07/21 04:17:57;;;;;;;0.88;0.88;;;18.70;99.90;;;;;;4972321;28;20437;-80
2022/07/21 04:20:24;;;;;;;0.85;0.85;;;18.80;99.90;;;;;;4974204;28;20438;-80
2022/07/21 04:22:51;;;;;;;0.73;0.73;;;18.90;99.90;;;;;;4981457;28;20449;-80
2022/07/21 04:25:19;;;;;;;0.82;0.82;;;18.90;99.90;;;;;;4969885;28;20452;-80
2022/07/21 04:27:48;;;;;;;1.10;1.10;;;19.00;99.90;;;;;;4967161;28;20445;-80
2022/07/21 04:30:17;;;;;;;0.77;0.77;;;19.10;99.90;;;;;;4988749;28;20832;-82
2022/07/21 04:32:44;;;;;;;0.90;0.90;;;19.20;99.90;;;;;;4986079;28;20444;-82
2022/07/21 04:35:11;;;;;;;1.08;1.08;;;19.20;99.90;;;;;;4986440;28;20933;-83
2022/07/21 04:37:43;;;;;;;1.20;1.20;;;19.30;99.90;;;;;;4989734;28;20999;-84
2022/07/21 04:40:12;;;;;;;1.37;1.27;;;19.30;99.90;;;;;;4977891;28;20438;-82
2022/07/21 04:42:39;;;;;;;0.88;0.88;;;19.30;99.90;;;;;;4965928;28;20537;-80
2022/07/21 04:45:07;;;;;;;1.25;1.15;;;19.30;99.90;;;;;;4980726;28;20434;-81
2022/07/21 04:47:47;;;;;;;1.67;1.00;;;19.20;99.90;;;;;;4972665;28;20434;-81
2022/07/21 04:50:15;;;;;;;1.00;1.00;;;19.30;99.90;;;;;;4979734;28;20477;-82
2022/07/21 04:52:42;;;;;;;1.20;1.10;;;19.70;99.90;;;;;;4972033;28;20437;-81
2022/07/21 04:55:10;;;;;;;1.10;1.10;;;20.30;99.90;;;;;;4961094;28;20437;-81
2022/07/21 04:57:42;;;;;;;1.10;1.00;;;20.80;99.90;;;;;;4993569;28;20444;-81
2022/07/21 05:00:12;;;;;;;0.80;0.77;;;21.20;99.90;;;;;;4962105;28;20506;-81
2022/07/21 05:02:39;;;;;;;1.00;1.00;;;21.60;99.90;;;;;;4957288;28;20478;-81
2022/07/21 05:05:07;;;;;;;1.20;1.20;;;22.30;99.90;;;;;;4960171;28;20739;-82
2022/07/21 05:07:34;;;;;;;1.30;1.20;;;22.70;99.90;;;;;;4966785;28;20435;-82
2022/07/21 05:10:07;;;;;;;0.93;0.93;;;22.70;99.90;;;;;;4970549;28;20440;-82
2022/07/21 05:12:34;;;;;;;1.23;1.13;;;22.70;99.90;;;;;;4967153;28;20881;-81
2022/07/21 05:15:02;;;;;;;1.15;1.15;;;22.30;99.90;;;;;;4978783;28;20434;-81
2022/07/21 05:17:30;;;;;;;1.40;1.10;;;22.60;99.90;;;;;;4968216;28;20450;-81
2022/07/21 05:19:56;;;;;;;0.90;0.90;;;23.40;99.90;;;;;;4985680;28;20448;-81
2022/07/21 05:22:25;;;;;;;1.25;1.25;;;24.20;99.90;;;;;;4974750;28;20576;-81
2022/07/21 05:24:52;;;;;;;1.10;1.10;;;25.00;99.90;;;;;;4964404;28;20446;-81
2022/07/21 05:27:19;;;;;;;0.90;0.90;;;25.20;99.90;;;;;;4979765;28;20529;-82
2022/07/21 05:29:48;;;;;;;1.17;1.10;;;25.00;99.90;;;;;;4990327;28;20481;-81
2022/07/21 05:32:15;;;;;;;1.10;1.10;;;24.50;99.90;;;;;;4988583;28;20453;-81
2022/07/21 05:34:45;;;;;;;0.80;0.80;;;24.00;99.90;;;;;;4990084;28;20470;-81
2022/07/21 05:37:11;;;;;;;1.50;1.40;;;23.50;99.90;;;;;;4993760;28;20456;-81
2022/07/21 05:39:39;;;;;;;1.20;1.20;;;22.90;99.90;;;;;;4985058;28;20517;-81
2022/07/21 05:42:09;;;;;;;1.20;1.20;;;22.40;99.90;;;;;;4973746;28;20468;-82
2022/07/21 05:44:36;;;;;;;0.93;0.93;;;21.80;99.90;;;;;;4970040;28;20533;-80
2022/07/21 05:47:03;;;;;;;1.30;1.30;;;21.50;99.90;;;;;;4983853;28;20873;-81
2022/07/21 05:49:30;;;;;;;1.08;1.08;;;21.20;99.90;;;;;;4967784;28;20601;-81
2022/07/21 05:51:57;;;;;;;1.52;1.42;;;21.10;99.90;;;;;;4969985;28;20456;-80
2022/07/21 05:54:23;;;;;;;1.30;1.30;;;21.20;99.90;;;;;;4969020;28;20469;-82
2022/07/21 05:56:50;;;;;;;1.27;1.27;;;21.20;99.90;;;;;;4964765;28;20434;-81
2022/07/21 05:59:17;;;;;;;1.33;1.33;;;21.30;99.90;;;;;;4985936;28;20453;-81
2022/07/21 06:01:44;;;;;;;1.00;1.00;;;21.60;99.90;;;;;;4982493;28;20469;-81
2022/07/21 06:04:11;;;;;;;1.23;1.23;;;22.10;99.90;;;;;;4974594;28;20980;-81
2022/07/21 06:06:38;;;;;;;1.30;1.00;;;23.00;99.90;;;;;;4968981;28;20513;-81
2022/07/21 06:09:04;;;;;;;1.50;1.40;;;24.50;99.90;;;;;;4992397;28;20799;-83
2022/07/21 06:11:31;;;;;;;1.20;1.10;;;25.90;99.90;;;;;;4967450;28;20447;-82
2022/07/21 06:14:03;;;;;;;1.42;1.33;;;27.20;99.90;;;;;;4980543;28;20520;-81
2022/07/21 06:16:31;;;;;;;0.90;0.90;;;28.30;99.90;;;;;;4972627;28;20485;-81
2022/07/21 06:18:59;;;;;;;0.97;0.97;;;28.70;99.90;;;;;;4980453;28;20438;-83
2022/07/21 06:21:26;;;;;;;1.23;1.05;;;27.60;99.90;;;;;;4966414;28;20450;-83
2022/07/21 06:23:53;;;;;;;1.23;1.13;;;26.20;99.90;;;;;;4982921;28;20436;-83
2022/07/21 06:26:20;;;;;;;1.35;1.25;;;25.40;99.90;;;;;;4977452;28;20450;-85
2022/07/21 06:28:47;;;;;;;1.00;1.00;;;24.50;99.90;;;;;;4984194;28;20948;-83
2022/07/21 06:31:14;;;;;;;1.00;1.00;;;24.00;99.90;;;;;;4970769;28;20774;-83
2022/07/21 06:33:41;;;;;;;1.17;1.17;;;23.50;99.90;;;;;;4982389;28;20923;-83
2022/07/21 06:36:08;;;;;;;1.15;1.10;;;23.70;99.90;;;;;;4985846;28;20703;-83
2022/07/21 06:38:35;;;;;;;1.10;1.10;;;24.60;99.90;;;;;;4980458;28;20451;-82
2022/07/21 06:41:02;;;;;;;1.00;1.00;;;25.10;99.90;;;;;;4992817;28;20463;-82
2022/07/21 06:43:32;;;;;;;1.05;1.05;;;25.60;99.90;;;;;;4979938;28;20442;-82
2022/07/21 06:45:59;;;;;;;1.03;1.03;;;26.00;99.90;;;;;;4986661;28;20442;-81
2022/07/21 06:48:28;;;;;;;1.00;1.00;;;26.90;99.90;;;;;;4980789;28;20475;-80
2022/07/21 06:50:56;;;;;;;1.08;1.08;;;27.40;99.90;;;;;;4971239;28;20440;-79
2022/07/21 06:53:24;;;;;;;1.30;1.20;;;26.80;99.90;;;;;;4984145;28;20437;-83
2022/07/21 06:55:55;;;;;;;0.90;0.90;;;26.40;99.90;;;;;;4959281;28;20450;-83
2022/07/21 06:58:30;;;;;;;1.13;1.13;;;26.30;99.90;;;;;;4972733;28;20432;-81
2022/07/21 07:01:05;;;;;;;1.30;1.20;;;26.30;99.90;;;;;;4975111;28;20440;-81
2022/07/21 07:03:33;;;;;;;1.10;1.10;;;26.70;99.90;;;;;;4986101;28;20454;-80
2022/07/21 07:06:02;;;;;;;1.00;1.00;;;27.10;99.90;;;;;;4980856;28;20434;-81
2022/07/21 07:08:32;;;;;;;1.15;1.10;;;27.50;99.90;;;;;;4982022;28;20446;-80
2022/07/21 07:11:09;;;;;;;0.70;0.70;;;28.00;99.90;;;;;;4969597;28;20774;-80
2022/07/21 07:13:36;;;;;;;1.25;1.00;;;28.30;99.90;;;;;;4989705;28;20452;-81
2022/07/21 07:16:23;;;;;;;1.02;1.02;;;28.30;99.90;;;;;;4985722;28;20461;-80
2022/07/21 07:18:50;;;;;;;0.77;0.77;;;28.00;99.90;;;;;;4985980;28;20940;-80
2022/07/21 07:21:17;;;;;;;1.10;1.10;;;28.20;99.90;;;;;;4982562;28;20438;-80
2022/07/21 07:23:47;;;;;;;1.00;0.70;;;28.10;99.90;;;;;;4985791;28;20442;-80
2022/07/21 07:26:17;;;;;;;1.00;1.00;;;27.80;99.90;;;;;;4982940;28;20442;-82
2022/07/21 07:28:43;;;;;;;0.73;0.73;;;28.00;99.90;;;;;;4984500;28;20449;-81
2022/07/21 07:31:10;;;;;;;0.98;0.95;;;28.80;99.90;;;;;;4983211;28;20439;-81
2022/07/21 07:33:37;;;;;;;0.93;0.93;;;29.20;99.90;;;;;;4984899;28;20446;-83
2022/07/21 07:36:04;;;;;;;1.05;1.05;;;29.30;99.90;;;;;;4986544;28;20447;-82
2022/07/21 07:38:31;;;;;;;1.17;1.17;;;29.40;99.90;;;;;;4965767;28;20435;-80
2022/07/21 07:40:57;;;;;;;0.68;0.68;;;28.80;99.90;;;;;;4983707;28;20439;-80
2022/07/21 07:43:24;;;;;;;1.00;1.00;;;28.20;99.90;;;;;;4990854;28;20440;-81
2022/07/21 07:45:51;;;;;;;0.93;0.93;;;27.40;99.90;;;;;;4980378;28;20929;-80
2022/07/21 07:48:18;;;;;;;0.88;0.88;;;27.50;99.90;;;;;;4974676;28;20505;-79
2022/07/21 07:50:44;;;;;;;0.73;0.73;;;28.40;99.90;;;;;;4969661;28;20430;-80
2022/07/21 07:53:14;;;;;;;0.70;0.70;;;28.80;99.90;;;;;;4981297;28;20449;-80
2022/07/21 07:55:41;;;;;;;0.88;0.88;;;29.10;99.90;;;;;;4982083;28;20445;-80
2022/07/21 07:58:08;;;;;;;0.82;0.82;;;29.90;99.90;;;;;;4985886;28;20434;-79
2022/07/21 08:00:35;;;;;;;0.80;0.80;;;30.00;99.90;;;;;;4980269;28;20826;-79
2022/07/21 08:03:23;;;;;;;0.93;0.93;;;29.50;99.90;;;;;;4977409;28;20422;-78
2022/07/21 08:05:51;;;;;;;0.85;0.85;;;29.10;99.90;;;;;;4989062;28;20446;-79
2022/07/21 08:08:18;;;;;;;0.93;0.93;;;29.20;99.90;;;;;;4970369;28;20434;-79
2022/07/21 08:10:47;;;;;;;1.02;1.02;;;29.00;99.90;;;;;;4984633;28;20501;-79
2022/07/21 08:13:16;;;;;;;0.90;0.90;;;28.40;99.90;;;;;;4985479;28;20450;-79
2022/07/21 08:15:45;;;;;;;0.90;0.90;;;27.60;99.90;;;;;;4980732;28;20434;-88
2022/07/21 08:18:12;;;;;;;0.70;0.70;;;27.10;99.90;;;;;;4982432;28;20504;-87
2022/07/21 08:20:44;;;;;;;0.80;0.80;;;27.40;99.90;;;;;;4986592;28;20452;-87
2022/07/21 08:23:12;;;;;;;0.80;0.80;;;28.50;99.90;;;;;;4968257;28;20469;-80
2022/07/21 08:25:40;;;;;;;0.90;0.90;;;28.70;99.90;;;;;;4986814;28;20484;-85
2022/07/21 08:28:13;;;;;;;0.85;0.85;;;28.60;99.90;;;;;;4984128;28;20477;-82
2022/07/21 08:30:41;;;;;;;0.80;0.80;;;29.20;99.90;;;;;;4985872;28;20438;-81
2022/07/21 08:33:08;;;;;;;1.60;0.80;;;29.80;99.90;;;;;;4986310;28;20434;-80
2022/07/21 08:35:35;;;;;;;0.95;0.95;;;30.50;99.90;;;;;;4978602;28;20426;-80
2022/07/21 08:38:04;;;;;;;0.90;0.90;;;30.10;99.90;;;;;;4987653;28;20434;-80
2022/07/21 08:40:36;;;;;;;1.20;1.10;;;30.40;99.90;;;;;;4985589;28;20446;-81
2022/07/21 08:43:08;;;;;;;0.93;0.82;;;30.80;99.90;;;;;;4985719;28;20430;-81
2022/07/21 08:45:37;;;;;;;0.90;0.90;;;30.50;99.90;;;;;;4972165;28;20441;-80
2022/07/21 08:48:04;;;;;;;0.90;0.90;;;30.60;99.90;;;;;;4971124;28;20438;-80
2022/07/21 08:50:36;;;;;;;0.90;0.90;;;30.80;99.90;;;;;;4986220;28;20471;-81
2022/07/21 08:53:04;;;;;;;0.85;0.85;;;30.90;99.90;;;;;;4985852;28;20447;-81
2022/07/21 08:55:33;;;;;;;0.80;0.80;;;31.30;99.90;;;;;;4972576;28;20947;-79
2022/07/21 08:58:00;;;;;;;0.80;0.80;;;31.60;99.90;;;;;;4981422;28;21201;-79
2022/07/21 09:00:34;;;;;;;0.70;0.70;;;31.00;99.90;;;;;;4962237;28;21130;-80
2022/07/21 09:03:11;;;;;;;0.70;0.70;;;30.00;99.90;;;;;;4973886;28;21190;-80
2022/07/21 09:05:39;;;;;;;0.70;0.70;;;28.70;99.90;;;;;;4984786;28;20454;-79
2022/07/21 09:08:05;;;;;;;0.70;0.70;;;27.90;99.90;;;;;;4984221;28;20523;-79
2022/07/21 09:10:34;;;;;;;0.75;0.75;;;28.10;99.90;;;;;;4978425;28;20516;-80
2022/07/21 09:13:05;;;;;;;0.83;0.83;;;29.00;99.90;;;;;;4974660;28;20955;-81
2022/07/21 09:15:33;;;;;;;0.80;0.80;;;29.40;99.90;;;;;;4968850;28;20442;-81
2022/07/21 09:18:07;;;;;;;0.70;0.70;;;29.10;99.90;;;;;;4979475;28;20510;-81
2022/07/21 09:20:45;;;;;;;0.70;0.70;;;29.30;99.90;;;;;;4975829;28;20438;-81
2022/07/21 09:23:15;;;;;;;0.70;0.70;;;29.80;99.90;;;;;;4976627;28;20458;-81
2022/07/21 09:25:50;;;;;;;0.73;0.73;;;30.00;99.90;;;;;;4974675;28;20531;-82
2022/07/21 09:28:21;;;;;;;0.88;0.88;;;29.90;99.90;;;;;;4975162;28;20949;-81
2022/07/21 09:30:52;;;;;;;0.80;0.80;;;29.40;99.90;;;;;;4976846;28;20430;-80
2022/07/21 09:33:37;;;;;;;0.50;0.50;;;29.10;99.90;;;;;;4986618;28;20525;-80
2022/07/21 09:36:25;;;;;;;0.60;0.60;;;29.60;99.90;;;;;;4983953;28;20442;-80
2022/07/21 09:38:55;;;;;;;0.60;0.60;;;29.40;99.90;;;;;;4978994;28;20442;-80
2022/07/21 09:41:26;;;;;;;0.60;0.60;;;29.20;99.90;;;;;;4984218;28;20453;-80
2022/07/21 09:43:56;;;;;;;0.63;0.63;;;29.80;99.90;;;;;;4980373;28;20770;-80
2022/07/21 09:46:28;;;;;;;0.60;0.60;;;29.40;99.90;;;;;;4989385;28;20442;-79
2022/07/21 09:49:02;;;;;;;0.65;0.65;;;29.40;99.90;;;;;;4983326;28;20439;-80
2022/07/21 09:51:48;;;;;;;0.70;0.70;;;28.40;99.90;;;;;;4974973;28;20439;-79
2022/07/21 09:54:15;;;;;;;0.75;0.75;;;27.90;99.90;;;;;;4984050;28;20518;-80
2022/07/21 09:56:44;;;;;;;0.60;0.60;;;27.40;99.90;;;;;;4984527;28;20436;-80
2022/07/21 09:59:13;;;;;;;0.90;0.90;;;26.80;99.90;;;;;;4987131;28;20442;-80
2022/07/21 10:01:40;;;;;;;1.00;1.00;;;26.40;99.90;;;;;;4962509;28;20449;-79
2022/07/21 10:04:07;;;;;;;0.70;0.70;;;26.10;99.90;;;;;;4982703;28;20444;-81
2022/07/21 10:06:38;;;;;;;0.73;0.73;;;25.80;99.90;;;;;;4981741;28;20519;-80
2022/07/21 10:09:07;;;;;;;0.80;0.80;;;25.80;99.90;;;;;;4984535;28;20517;-80
2022/07/21 10:11:40;;;;;;;0.60;0.60;;;25.80;99.90;;;;;;4985113;28;20430;-80
2022/07/21 10:14:10;;;;;;;0.68;0.68;;;26.10;99.90;;;;;;4962549;28;20432;-80
2022/07/21 10:16:37;;;;;;;0.77;0.77;;;26.30;99.90;;;;;;4985549;28;20426;-79
2022/07/21 10:19:41;;;;;;;0.70;0.70;;;26.80;99.90;;;;;;4972817;28;20802;-79
2022/07/21 10:22:22;;;;;;;0.70;0.70;;;27.00;99.90;;;;;;4893466;29;20462;-80
2022/07/21 10:24:49;;;;;;;0.85;0.85;;;26.80;99.90;;;;;;4890033;29;20471;-80
2022/07/21 10:27:16;;;;;;;0.80;0.80;;;26.40;99.90;;;;;;4886457;29;20434;-80
2022/07/21 10:29:54;;;;;;;0.80;0.80;;;26.10;99.90;;;;;;4893285;29;21035;-81
2022/07/21 10:32:34;;;;;;;0.60;0.60;;;26.00;99.90;;;;;;4888854;29;20446;-79
2022/07/21 10:35:23;;;;;;;0.60;0.60;;;26.40;99.90;;;;;;4887009;29;20945;-79
2022/07/21 10:37:50;;;;;;;0.65;0.65;;;27.10;99.90;;;;;;4870528;29;20479;-79
2022/07/21 10:40:20;;;;;;;0.60;0.60;;;27.60;99.90;;;;;;4893137;29;20455;-79
2022/07/21 10:42:58;;;;;;;0.55;0.55;;;28.00;99.90;;;;;;4891177;29;20507;-79
2022/07/21 10:45:39;;;;;;;0.70;0.67;;;28.00;99.90;;;;;;4899618;29;20979;-80
2022/07/21 10:48:27;;;;;;;0.60;0.60;;;28.60;99.90;;;;;;4887523;29;20984;-80
2022/07/21 10:50:58;;;;;;;0.55;0.55;;;28.80;99.90;;;;;;4892486;29;20490;-79
2022/07/21 10:53:24;;;;;;;0.60;0.60;;;28.10;99.90;;;;;;4892276;29;20552;-80
2022/07/21 10:55:53;;;;;;;0.60;0.60;;;28.00;99.90;;;;;;4893815;29;20444;-80
2022/07/21 10:58:26;;;;;;;0.50;0.50;;;27.80;99.90;;;;;;4900867;28;21004;-79
2022/07/21 11:00:56;;;;;;;0.60;0.60;;;27.50;99.90;;;;;;4986591;28;20438;-79
2022/07/21 11:04:05;;;;;;;0.60;0.60;;;27.50;99.90;;;;;;4982641;28;20492;-79
2022/07/21 11:06:32;;;;;;;0.43;0.43;;;27.70;99.90;;;;;;4984051;28;20808;-79
2022/07/21 11:09:02;;;;;;;0.70;0.68;;;28.10;99.90;;;;;;4991175;28;21129;-80
2022/07/21 11:11:37;;;;;;;0.50;0.50;;;28.90;99.90;;;;;;4990914;28;20528;-79
2022/07/21 11:14:13;;;;;;;0.60;0.60;;;29.00;99.90;;;;;;4986411;28;20860;-80
2022/07/21 11:16:49;;;;;;;0.52;0.52;;;28.60;99.90;;;;;;4986420;28;20502;-80
2022/07/21 11:19:28;;;;;;;0.55;0.55;;;28.10;99.90;;;;;;4986500;28;20458;-79
2022/07/21 11:22:00;;;;;;;0.63;0.63;;;27.70;99.90;;;;;;4986519;28;20456;-79
2022/07/21 11:24:27;;;;;;;0.57;0.57;;;27.30;99.90;;;;;;4986618;28;20442;-79
2022/07/21 11:27:11;;;;;;;0.60;0.60;;;27.30;99.90;;;;;;4967544;28;20818;-79
2022/07/21 11:29:39;;;;;;;0.47;0.47;;;27.20;99.90;;;;;;4968971;28;20525;-80
2022/07/21 11:32:07;;;;;;;0.60;0.50;;;27.00;99.90;;;;;;4987914;28;20440;-79
2022/07/21 11:35:04;;;;;;;0.60;0.60;;;27.00;99.90;;;;;;4988915;28;20521;-79
2022/07/21 11:37:36;;;;;;;0.70;0.70;;;27.40;99.90;;;;;;4971000;28;20430;-80
2022/07/21 11:40:12;;;;;;;0.52;0.52;;;28.30;99.90;;;;;;4988044;28;20481;-80
2022/07/21 11:42:45;;;;;;;0.90;0.50;;;28.90;99.90;;;;;;4977917;28;20445;-80
2022/07/21 11:45:12;;;;;;;0.60;0.60;;;29.30;99.90;;;;;;4962666;28;20444;-81
2022/07/21 11:47:39;;;;;;;0.52;0.52;;;29.90;99.90;;;;;;4983106;28;20505;-81
2022/07/21 11:50:11;;;;;;;0.70;0.70;;;30.10;99.90;;;;;;4985215;28;20545;-80
2022/07/21 11:52:39;;;;;;;0.80;0.80;;;29.60;99.90;;;;;;4970938;28;20446;-80
2022/07/21 11:55:09;;;;;;;0.60;0.60;;;29.00;99.90;;;;;;4976616;28;20468;-80
2022/07/21 11:57:36;;;;;;;0.70;0.70;;;29.00;99.90;;;;;;4991467;28;20430;-80
2022/07/21 12:00:08;;;;;;;0.70;0.70;;;29.50;99.90;;;;;;4984398;28;20464;-80
2022/07/21 12:02:37;;;;;;;0.67;0.67;;;30.10;99.90;;;;;;4990827;28;20448;-80
2022/07/21 12:05:08;;;;;;;0.70;0.70;;;30.40;99.90;;;;;;4976686;28;20441;-80
2022/07/21 12:07:36;;;;;;;1.50;0.70;;;30.20;99.90;;;;;;4981328;28;20929;-80
2022/07/21 12:10:13;;;;;;;0.60;0.60;;;29.40;99.90;;;;;;4990967;28;20438;-80
2022/07/21 12:12:43;;;;;;;0.80;0.80;;;29.50;99.90;;;;;;4988688;28;20445;-80
2022/07/21 12:15:13;;;;;;;0.93;0.93;;;29.90;99.90;;;;;;4992286;28;20441;-80
2022/07/21 12:17:48;;;;;;;0.80;0.80;;;30.70;99.90;;;;;;4988943;28;20858;-80
2022/07/21 12:20:27;;;;;;;0.80;0.80;;;30.10;99.90;;;;;;4989793;28;20576;-80
2022/07/21 12:22:56;;;;;;;0.80;0.80;;;29.40;99.90;;;;;;4989638;28;20507;-80
2022/07/21 12:25:39;;;;;;;0.82;0.82;;;29.10;99.90;;;;;;4987969;28;20445;-80
2022/07/21 12:28:07;;;;;;;0.90;0.90;;;28.90;99.90;;;;;;4978195;28;20504;-80
2022/07/21 12:30:47;;;;;;;0.90;0.90;;;29.30;99.90;;;;;;4989549;28;20802;-80
2022/07/21 12:33:20;;;;;;;0.90;0.88;;;29.30;99.90;;;;;;4988253;28;21065;-80
2022/07/21 12:36:03;;;;;;;0.90;0.90;;;29.70;99.90;;;;;;4984756;28;20448;-80
2022/07/21 12:38:45;;;;;;;0.80;0.80;;;29.90;99.90;;;;;;4997666;28;20445;-80
2022/07/21 12:41:14;;;;;;;0.93;0.90;;;30.50;99.90;;;;;;4985914;28;20438;-80
2022/07/21 12:44:01;;;;;;;1.33;1.20;;;30.70;99.80;;;;;;4985624;28;20431;-80
2022/07/21 12:46:33;;;;;;;0.98;0.98;;;30.70;99.90;;;;;;4987358;28;20518;-80
2022/07/21 12:49:09;;;;;;;1.02;1.02;;;29.90;99.90;;;;;;4980132;28;20802;-80
2022/07/21 12:51:42;;;;;;;1.00;1.00;;;29.90;99.90;;;;;;4987103;28;20950;-80
2022/07/21 12:54:09;;;;;;;1.15;1.10;;;29.80;99.60;;;;;;4985800;28;20438;-80
2022/07/21 12:56:38;;;;;;;1.20;1.20;;;29.70;99.30;;;;;;4989754;28;20438;-80
2022/07/21 12:59:05;;;;;;;1.08;1.08;;;29.70;99.90;;;;;;4989337;28;20459;-80
2022/07/21 13:01:36;;;;;;;1.00;1.00;;;29.90;99.90;;;;;;4987321;28;20525;-80
2022/07/21 13:04:04;;;;;;;1.10;1.00;;;30.00;99.20;;;;;;4987070;28;20496;-80